createdAt,value
2022-10-02T00:01:38.152Z,4.07
2022-10-02T00:04:13.434Z,4.32
2022-10-02T00:06:44.417Z,4.07
2022-10-02T00:09:21.753Z,6.65
2022-10-02T00:11:56.966Z,5.15
2022-10-02T00:14:29.277Z,5.63
2022-10-02T00:17:02.143Z,4.18
2022-10-02T00:19:30.708Z,4.57
2022-10-02T00:22:12.965Z,5.75
2022-10-02T00:24:47.636Z,6.28
2022-10-02T00:27:28.512Z,4.40
2022-10-02T00:30:00.958Z,4.53
2022-10-02T00:32:35.391Z,5.18
2022-10-02T00:35:37.323Z,4.70
2022-10-02T00:38:15.842Z,4.13
2022-10-02T00:41:04.579Z,3.63
2022-10-02T00:43:39.194Z,3.47
2022-10-02T00:46:28.416Z,5.32
2022-10-02T00:49:14.104Z,3.83
2022-10-02T00:51:53.589Z,7.10
2022-10-02T00:54:49.384Z,9.65
2022-10-02T00:57:31.624Z,9.25
2022-10-02T01:00:06.056Z,5.88
2022-10-02T01:03:09.772Z,5.20
2022-10-02T01:05:40.136Z,6.15
2022-10-02T01:08:09.109Z,5.65
2022-10-02T01:10:39.243Z,4.00
2022-10-02T01:13:08.508Z,6.22
2022-10-02T01:15:40.187Z,4.15
2022-10-02T01:18:11.077Z,3.20
2022-10-02T01:20:43.484Z,4.07
2022-10-02T01:23:25.024Z,4.28
2022-10-02T01:25:55.094Z,5.53
2022-10-02T01:28:24.264Z,4.57
2022-10-02T01:30:56.607Z,3.25
2022-10-02T01:33:25.205Z,3.15
2022-10-02T01:35:53.881Z,3.80
2022-10-02T01:38:24.868Z,4.40
2022-10-02T01:40:54.803Z,5.50
2022-10-02T01:43:28.216Z,7.15
2022-10-02T01:46:07.069Z,7.40
2022-10-02T01:48:46.147Z,5.70
2022-10-02T01:51:28.141Z,3.95
2022-10-02T01:54:06.274Z,3.88
2022-10-02T01:56:44.464Z,3.60
2022-10-02T01:59:23.589Z,3.08
2022-10-02T02:02:06.613Z,3.50
2022-10-02T02:04:43.490Z,3.40
2022-10-02T02:07:18.272Z,2.88
2022-10-02T02:09:57.037Z,2.72
2022-10-02T02:12:35.244Z,3.35
2022-10-02T02:15:08.725Z,3.10
2022-10-02T02:17:47.584Z,3.37
2022-10-02T02:20:19.869Z,3.15
2022-10-02T02:22:52.598Z,3.42
2022-10-02T02:25:24.415Z,2.90
2022-10-02T02:27:59.281Z,2.60
2022-10-02T02:30:31.731Z,3.10
2022-10-02T02:33:05.913Z,3.38
2022-10-02T02:35:38.987Z,2.95
2022-10-02T02:38:12.537Z,3.15
2022-10-02T02:40:45.138Z,3.75
2022-10-02T02:43:20.644Z,2.85
2022-10-02T02:45:53.991Z,3.13
2022-10-02T02:48:25.967Z,3.23
2022-10-02T02:50:59.455Z,2.92
2022-10-02T02:53:34.697Z,3.20
2022-10-02T02:56:07.035Z,3.00
2022-10-02T02:58:40.929Z,3.05
2022-10-02T03:01:09.662Z,2.85
2022-10-02T03:03:38.472Z,3.00
2022-10-02T03:06:25.531Z,3.28
2022-10-02T03:08:55.328Z,3.40
2022-10-02T03:11:38.202Z,3.45
2022-10-02T03:14:29.724Z,2.97
2022-10-02T03:17:09.521Z,3.22
2022-10-02T03:19:45.207Z,3.40
2022-10-02T03:22:21.968Z,2.90
2022-10-02T03:24:57.948Z,3.10
2022-10-02T03:27:35.179Z,3.75
2022-10-02T03:30:08.343Z,3.30
2022-10-02T03:32:38.933Z,3.28
2022-10-02T03:35:13.275Z,3.45
2022-10-02T03:40:12.627Z,2.80
2022-10-02T03:42:41.371Z,3.17
2022-10-02T03:45:23.061Z,3.33
2022-10-02T03:48:00.808Z,2.95
2022-10-02T03:50:32.890Z,3.40
2022-10-02T03:53:12.266Z,3.30
2022-10-02T03:55:45.108Z,3.30
2022-10-02T03:58:16.915Z,3.17
2022-10-02T04:00:58.552Z,2.70
2022-10-02T04:03:31.914Z,3.40
2022-10-02T04:06:05.003Z,3.13
2022-10-02T04:08:37.210Z,3.10
2022-10-02T04:11:13.075Z,2.80
2022-10-02T04:13:48.392Z,3.33
2022-10-02T04:16:22.109Z,2.95
2022-10-02T04:18:56.130Z,2.80
2022-10-02T04:21:34.508Z,3.08
2022-10-02T04:24:10.972Z,3.15
2022-10-02T04:26:45.505Z,3.22
2022-10-02T04:29:19.927Z,2.97
2022-10-02T04:34:20.840Z,3.25
2022-10-02T04:37:05.529Z,2.90
2022-10-02T04:42:26.040Z,2.70
2022-10-02T04:45:11.418Z,2.80
2022-10-02T04:48:27.486Z,2.58
2022-10-02T04:51:08.774Z,2.75
2022-10-02T04:53:51.579Z,3.08
2022-10-02T04:56:42.269Z,2.28
2022-10-02T04:59:24.437Z,2.55
2022-10-02T05:02:07.598Z,2.95
2022-10-02T05:05:01.675Z,3.13
2022-10-02T05:07:50.419Z,2.70
2022-10-02T05:10:35.376Z,2.65
2022-10-02T05:13:15.881Z,2.75
2022-10-02T05:16:05.832Z,2.83
2022-10-02T05:18:53.104Z,2.58
2022-10-02T05:21:41.597Z,2.72
2022-10-02T05:24:34.163Z,2.65
2022-10-02T05:27:13.828Z,2.88
2022-10-02T05:29:58.904Z,2.50
2022-10-02T05:32:53.907Z,2.97
2022-10-02T05:38:11.795Z,2.72
2022-10-02T05:40:50.668Z,3.10
2022-10-02T05:43:27.993Z,2.90
2022-10-02T05:45:59.894Z,2.95
2022-10-02T05:48:31.781Z,3.15
2022-10-02T05:51:06.181Z,3.22
2022-10-02T05:56:13.317Z,2.55
2022-10-02T05:58:51.585Z,2.80
2022-10-02T06:01:27.981Z,2.70
2022-10-02T06:04:04.492Z,2.90
2022-10-02T06:06:39.150Z,2.90
2022-10-02T06:09:18.964Z,2.88
2022-10-02T06:11:54.323Z,3.53
2022-10-02T06:17:01.856Z,3.25
2022-10-02T06:22:08.498Z,4.85
2022-10-02T06:24:43.538Z,4.82
2022-10-02T06:27:21.523Z,4.05
2022-10-02T06:29:55.492Z,4.45
2022-10-02T06:32:33.330Z,3.97
2022-10-02T06:35:03.047Z,4.35
2022-10-02T06:37:49.231Z,3.80
2022-10-02T06:40:42.783Z,4.60
2022-10-02T06:43:26.342Z,4.07
2022-10-02T06:46:03.353Z,4.47
2022-10-02T06:48:40.925Z,4.40
2022-10-02T06:51:18.249Z,3.70
2022-10-02T06:54:00.520Z,4.22
2022-10-02T06:56:44.436Z,5.22
2022-10-02T06:59:30.176Z,4.40
2022-10-02T07:02:10.933Z,4.45
2022-10-02T07:04:54.339Z,4.32
2022-10-02T07:07:36.957Z,4.28
2022-10-02T07:10:19.192Z,5.60
2022-10-02T07:13:09.588Z,4.57
2022-10-02T07:15:58.733Z,5.13
2022-10-02T07:18:42.836Z,5.60
2022-10-02T07:21:17.249Z,5.00
2022-10-02T07:26:48.816Z,5.47
2022-10-02T07:29:48.424Z,5.00
2022-10-02T07:32:54.112Z,5.13
2022-10-02T07:35:40.624Z,5.93
2022-10-02T07:38:21.995Z,5.47
2022-10-02T07:41:00.395Z,5.50
2022-10-02T07:43:44.890Z,6.03
2022-10-02T07:46:20.763Z,5.88
2022-10-02T07:49:00.244Z,6.10
2022-10-02T07:51:48.559Z,5.50
2022-10-02T07:54:56.583Z,6.22
2022-10-02T07:57:40.562Z,5.40
2022-10-02T08:00:15.145Z,5.90
2022-10-02T08:02:54.301Z,5.97
2022-10-02T08:05:27.891Z,5.68
2022-10-02T08:08:00.832Z,6.00
2022-10-02T08:10:37.892Z,5.07
2022-10-02T08:13:14.748Z,5.25
2022-10-02T08:15:47.289Z,5.53
2022-10-02T08:18:34.202Z,5.68
2022-10-02T08:21:10.071Z,5.50
2022-10-02T08:23:44.037Z,5.35
2022-10-02T08:26:20.045Z,6.03
2022-10-02T08:28:57.220Z,5.63
2022-10-02T08:31:26.893Z,5.70
2022-10-02T08:33:56.198Z,5.05
2022-10-02T08:36:48.344Z,5.13
2022-10-02T08:39:53.051Z,5.82
2022-10-02T08:42:57.755Z,4.85
2022-10-02T08:45:52.714Z,5.13
2022-10-02T08:51:27.278Z,5.00
2022-10-02T08:54:35.200Z,5.07
2022-10-02T08:57:27.099Z,5.47
2022-10-02T09:00:24.004Z,5.68
2022-10-02T09:03:30.027Z,5.10
2022-10-02T09:06:38.808Z,5.47
2022-10-02T09:10:01.611Z,4.63
2022-10-02T09:13:15.117Z,5.00
2022-10-02T09:15:47.948Z,4.95
2022-10-02T09:18:20.287Z,4.90
2022-10-02T09:21:15.557Z,5.80
2022-10-02T09:24:50.469Z,6.82
2022-10-02T09:27:51.656Z,5.00
2022-10-02T09:30:59.170Z,4.88
2022-10-02T09:34:04.338Z,5.47
2022-10-02T09:36:49.516Z,5.22
2022-10-02T09:39:52.827Z,4.70
2022-10-02T09:42:44.381Z,5.32
2022-10-02T09:45:33.236Z,4.88
2022-10-02T09:48:52.388Z,4.68
2022-10-02T09:52:05.316Z,4.97
2022-10-02T09:55:04.174Z,5.28
2022-10-02T09:57:57.424Z,4.93
2022-10-02T10:00:54.027Z,5.13
2022-10-02T10:04:00.821Z,4.90
2022-10-02T10:06:57.931Z,4.53
2022-10-02T10:10:12.385Z,4.38
2022-10-02T10:13:25.815Z,5.18
2022-10-02T10:16:41.339Z,4.30
2022-10-02T10:22:12.446Z,4.30
2022-10-02T10:25:22.681Z,4.35
2022-10-02T10:28:14.624Z,4.50
2022-10-02T10:31:10.145Z,3.65
2022-10-02T10:34:21.912Z,3.88
2022-10-02T10:37:18.531Z,3.83
2022-10-02T10:40:26.592Z,4.47
2022-10-02T10:43:32.104Z,3.47
2022-10-02T10:46:33.532Z,3.63
2022-10-02T10:49:45.179Z,3.22
2022-10-02T10:52:21.671Z,3.38
2022-10-02T10:55:07.620Z,3.78
2022-10-02T10:57:51.361Z,4.00
2022-10-02T11:00:23.615Z,3.70
2022-10-02T11:03:17.342Z,4.00
2022-10-02T11:06:15.324Z,4.57
2022-10-02T11:09:20.059Z,4.70
2022-10-02T11:12:07.508Z,5.55
2022-10-02T11:14:50.657Z,5.75
2022-10-02T11:17:46.657Z,5.30
2022-10-02T11:20:51.446Z,4.97
2022-10-02T11:23:39.108Z,4.32
2022-10-02T11:26:34.367Z,3.90
2022-10-02T11:29:40.716Z,4.10
2022-10-02T11:32:28.392Z,4.38
2022-10-02T11:35:23.547Z,4.63
2022-10-02T11:38:07.183Z,4.10
2022-10-02T11:40:54.376Z,3.78
2022-10-02T11:43:43.954Z,4.70
2022-10-02T11:46:23.519Z,4.93
2022-10-02T11:49:20.413Z,3.97
2022-10-02T11:52:06.135Z,4.53
2022-10-02T11:54:46.842Z,4.00
2022-10-02T11:57:29.277Z,3.58
2022-10-02T12:00:33.774Z,4.13
2022-10-02T12:03:10.696Z,4.05
2022-10-02T12:05:55.709Z,4.97
2022-10-02T12:08:37.089Z,4.10
2022-10-02T12:11:11.508Z,4.00
2022-10-02T12:14:01.436Z,4.10
2022-10-02T12:16:42.678Z,4.20
2022-10-02T12:19:21.631Z,3.92
2022-10-02T12:22:18.349Z,4.45
2022-10-02T12:25:16.293Z,3.67
2022-10-02T12:27:55.860Z,3.90
2022-10-02T12:30:33.070Z,3.85
2022-10-02T12:33:25.320Z,3.42
2022-10-02T12:36:21.370Z,3.33
2022-10-02T12:39:05.492Z,3.88
2022-10-02T12:41:54.531Z,3.70
2022-10-02T12:44:44.224Z,3.05
2022-10-02T12:47:31.128Z,3.08
2022-10-02T12:50:11.903Z,3.50
2022-10-02T12:53:31.613Z,3.40
2022-10-02T12:56:20.211Z,3.10
2022-10-02T12:59:02.638Z,3.40
2022-10-02T13:02:49.064Z,2.90
2022-10-02T13:05:53.508Z,2.80
2022-10-02T13:08:34.388Z,3.17
2022-10-02T13:11:13.014Z,2.38
2022-10-02T13:14:07.696Z,2.28
2022-10-02T13:17:00.936Z,2.22
2022-10-02T13:19:36.883Z,2.67
2022-10-02T13:22:17.252Z,2.65
2022-10-02T13:25:01.032Z,2.67
2022-10-02T13:27:38.984Z,2.83
2022-10-02T13:30:15.275Z,2.65
2022-10-02T13:33:00.314Z,2.25
2022-10-02T13:36:04.226Z,2.20
2022-10-02T13:38:59.964Z,2.25
2022-10-02T13:41:41.439Z,2.50
2022-10-02T13:44:22.238Z,2.28
2022-10-02T13:47:18.946Z,2.75
2022-10-02T13:50:04.084Z,2.50
2022-10-02T13:52:42.603Z,2.70
2022-10-02T13:55:25.756Z,2.30
2022-10-02T13:58:08.622Z,2.88
2022-10-02T14:01:05.580Z,2.35
2022-10-02T14:03:48.135Z,2.75
2022-10-02T14:06:23.247Z,3.17
2022-10-02T14:09:22.938Z,2.58
2022-10-02T14:12:05.063Z,3.38
2022-10-02T14:14:51.167Z,2.78
2022-10-02T14:17:33.179Z,3.80
2022-10-02T14:20:32.261Z,3.50
2022-10-02T14:23:14.967Z,3.13
2022-10-02T14:25:55.724Z,2.80
2022-10-02T14:28:48.871Z,2.85
2022-10-02T14:31:35.125Z,2.65
2022-10-02T14:34:33.139Z,3.00
2022-10-02T14:37:35.262Z,2.70
2022-10-02T14:40:13.578Z,2.80
2022-10-02T14:43:12.073Z,3.20
2022-10-02T14:46:16.568Z,2.50
2022-10-02T14:49:12.468Z,2.85
2022-10-02T14:52:09.221Z,2.50
2022-10-02T14:55:06.891Z,2.47
2022-10-02T14:58:04.729Z,3.28
2022-10-02T15:00:44.707Z,2.83
2022-10-02T15:03:41.048Z,3.38
2022-10-02T15:06:27.107Z,2.60
2022-10-02T15:08:59.831Z,2.63
2022-10-02T15:11:53.035Z,2.65
2022-10-02T15:14:32.253Z,3.17
2022-10-02T15:17:21.882Z,3.10
2022-10-02T15:20:00.310Z,3.05
2022-10-02T15:22:35.847Z,3.10
2022-10-02T15:25:18.077Z,2.90
2022-10-02T15:27:54.671Z,2.63
2022-10-02T15:30:26.842Z,3.22
2022-10-02T15:33:11.495Z,3.45
2022-10-02T15:36:12.928Z,2.58
2022-10-02T15:38:55.445Z,2.80
2022-10-02T15:41:40.641Z,2.72
2022-10-02T15:44:44.802Z,2.67
2022-10-02T15:47:32.033Z,2.35
2022-10-02T15:50:24.327Z,3.22
2022-10-02T15:53:07.317Z,2.85
2022-10-02T15:55:41.892Z,4.00
2022-10-02T15:58:24.397Z,2.88
2022-10-02T16:01:18.743Z,3.20
2022-10-02T16:03:51.853Z,3.25
2022-10-02T16:06:35.309Z,3.58
2022-10-02T16:09:35.949Z,6.90
2022-10-02T16:12:29.835Z,3.00
2022-10-02T16:15:09.477Z,2.83
2022-10-02T16:18:04.477Z,2.83
2022-10-02T16:21:12.691Z,3.00
2022-10-02T16:24:06.128Z,2.53
2022-10-02T16:27:02.545Z,3.55
2022-10-02T16:29:42.808Z,3.20
2022-10-02T16:32:21.025Z,2.97
2022-10-02T16:35:11.386Z,3.58
2022-10-02T16:37:46.268Z,4.70
2022-10-02T16:40:29.426Z,3.53
2022-10-02T16:43:36.853Z,4.35
2022-10-02T16:46:11.164Z,14.98
2022-10-02T16:51:27.496Z,8.70
2022-10-02T16:54:02.309Z,15.07
2022-10-02T16:56:35.606Z,13.68
2022-10-02T16:59:12.882Z,12.57
2022-10-02T17:02:12.687Z,14.35
2022-10-02T17:04:47.124Z,15.83
2022-10-02T17:07:42.628Z,24.13
2022-10-02T17:10:22.453Z,18.45
2022-10-02T17:12:58.903Z,10.98
2022-10-02T17:15:35.864Z,39.75
2022-10-02T17:18:18.836Z,28.70
2022-10-02T17:20:52.023Z,18.35
2022-10-02T17:23:28.019Z,25.17
2022-10-02T17:26:07.048Z,15.63
2022-10-02T17:28:44.988Z,20.88
2022-10-02T17:31:35.709Z,26.02
2022-10-02T17:34:20.014Z,16.20
2022-10-02T17:37:02.326Z,20.60
2022-10-02T17:39:57.170Z,15.38
2022-10-02T17:42:53.114Z,12.45
2022-10-02T17:45:32.989Z,15.65
2022-10-02T17:48:20.421Z,11.52
2022-10-02T17:51:40.471Z,10.45
2022-10-02T17:54:37.932Z,10.23
2022-10-02T17:57:30.007Z,14.02
2022-10-02T18:00:13.130Z,19.02
2022-10-02T18:02:56.372Z,15.63
2022-10-02T18:05:33.816Z,15.95
2022-10-02T18:08:18.812Z,12.25
2022-10-02T18:11:01.173Z,16.67
2022-10-02T18:13:42.593Z,38.85
2022-10-02T18:16:29.881Z,28.05
2022-10-02T18:19:27.852Z,26.42
2022-10-02T18:22:12.624Z,17.23
2022-10-02T18:25:12.386Z,10.25
2022-10-02T18:28:10.507Z,11.55
2022-10-02T18:30:49.286Z,13.23
2022-10-02T18:34:06.939Z,7.10
2022-10-02T18:36:54.425Z,7.70
2022-10-02T18:39:41.019Z,6.30
2022-10-02T18:42:39.952Z,6.88
2022-10-02T18:45:27.444Z,5.25
2022-10-02T18:48:19.626Z,4.47
2022-10-02T18:51:04.462Z,5.13
2022-10-02T18:53:59.519Z,5.82
2022-10-02T18:59:23.480Z,4.75
2022-10-02T19:02:02.652Z,5.57
2022-10-02T19:05:04.024Z,6.30
2022-10-02T19:07:42.267Z,5.60
2022-10-02T19:10:29.589Z,5.47
2022-10-02T19:13:04.600Z,5.53
2022-10-02T19:15:34.753Z,5.68
2022-10-02T19:18:04.937Z,3.97
2022-10-02T19:20:48.235Z,4.63
2022-10-02T19:23:26.312Z,5.25
2022-10-02T19:25:57.186Z,4.45
2022-10-02T19:28:30.219Z,4.38
2022-10-02T19:31:02.123Z,4.35
2022-10-02T19:33:45.133Z,4.35
2022-10-02T19:36:19.380Z,5.20
2022-10-02T19:38:54.759Z,6.18
2022-10-02T19:41:24.592Z,5.95
2022-10-02T19:43:58.990Z,8.63
2022-10-02T19:46:35.750Z,7.55
2022-10-02T19:49:05.987Z,5.43
2022-10-02T19:51:44.173Z,6.18
2022-10-02T19:54:17.338Z,5.55
2022-10-02T19:56:47.066Z,4.65
2022-10-02T19:59:20.270Z,4.47
2022-10-02T20:01:52.993Z,4.07
2022-10-02T20:04:24.550Z,4.20
2022-10-02T20:06:56.555Z,4.38
2022-10-02T20:09:34.649Z,4.45
2022-10-02T20:12:08.381Z,4.00
2022-10-02T20:14:43.636Z,3.95
2022-10-02T20:17:13.487Z,3.20
2022-10-02T20:19:48.274Z,3.38
2022-10-02T20:22:25.480Z,4.25
2022-10-02T20:24:59.795Z,3.30
2022-10-02T20:30:12.008Z,3.50
2022-10-02T20:32:47.307Z,3.75
2022-10-02T20:35:20.053Z,3.60
2022-10-02T20:37:52.366Z,3.15
2022-10-02T20:40:26.621Z,3.28
2022-10-02T20:43:01.539Z,3.22
2022-10-02T20:45:37.865Z,3.58
2022-10-02T20:48:56.024Z,3.28
2022-10-02T20:51:45.049Z,3.70
2022-10-02T20:54:33.558Z,3.20
2022-10-02T20:57:20.866Z,3.30
2022-10-02T21:00:05.633Z,3.47
2022-10-02T21:03:05.044Z,3.70
2022-10-02T21:05:57.626Z,3.60
2022-10-02T21:08:48.067Z,3.10
2022-10-02T21:11:27.711Z,3.60
2022-10-02T21:14:31.171Z,4.03
2022-10-02T21:17:24.018Z,3.50
2022-10-02T21:20:51.201Z,3.47
2022-10-02T21:23:56.333Z,3.72
2022-10-02T21:26:49.187Z,4.53
2022-10-02T21:29:54.841Z,3.53
2022-10-02T21:32:42.500Z,3.88
2022-10-02T21:35:16.950Z,3.67
2022-10-02T21:38:01.344Z,3.20
2022-10-02T21:41:01.544Z,3.63
2022-10-02T21:44:00.198Z,4.30
2022-10-02T21:46:45.582Z,3.30
2022-10-02T21:50:03.407Z,3.97
2022-10-02T21:53:03.756Z,3.17
2022-10-02T21:56:04.566Z,3.45
2022-10-02T21:59:08.240Z,3.13
2022-10-02T22:02:14.549Z,3.72
2022-10-02T22:05:23.565Z,3.72
2022-10-02T22:08:01.055Z,3.78
2022-10-02T22:10:35.377Z,3.42
2022-10-02T22:15:56.134Z,3.90
2022-10-02T22:18:34.147Z,3.63
2022-10-02T22:21:31.866Z,4.13
2022-10-02T22:24:17.887Z,3.50
2022-10-02T22:27:05.878Z,3.08
2022-10-02T22:29:45.843Z,3.88
2022-10-02T22:32:50.652Z,3.65
2022-10-02T22:35:29.945Z,3.50
2022-10-02T22:38:13.180Z,3.33
2022-10-02T22:40:48.092Z,3.50
2022-10-02T22:43:25.794Z,4.53
2022-10-02T22:46:01.328Z,3.78
2022-10-02T22:48:38.907Z,4.32
2022-10-02T22:51:17.347Z,3.58
2022-10-02T22:53:52.273Z,3.33
2022-10-02T22:56:28.847Z,3.60
2022-10-02T22:59:10.556Z,3.50
2022-10-02T23:01:47.412Z,3.05
2022-10-02T23:04:26.264Z,3.70
2022-10-02T23:07:01.229Z,3.38
2022-10-02T23:09:41.639Z,3.00
2022-10-02T23:12:16.277Z,3.38
2022-10-02T23:14:58.447Z,3.55
2022-10-02T23:17:36.853Z,4.20
2022-10-02T23:20:13.163Z,3.47
2022-10-02T23:22:51.424Z,3.13
2022-10-02T23:25:26.213Z,3.13
2022-10-02T23:27:59.213Z,4.70
2022-10-02T23:30:29.933Z,2.95
2022-10-02T23:33:04.109Z,3.85
2022-10-02T23:35:40.070Z,3.20
2022-10-02T23:38:17.121Z,3.65
2022-10-02T23:41:22.306Z,4.13
2022-10-02T23:44:00.782Z,3.35
2022-10-02T23:46:35.866Z,3.50
2022-10-02T23:49:05.918Z,3.42
2022-10-02T23:51:52.189Z,3.42
2022-10-02T23:54:42.151Z,3.40
2022-10-02T23:57:33.268Z,3.55
